Terminal Aerodrome Forecast
Issued by NWS

Current Version | Previous Version | Text Only | Print | Product List | Glossary Off
Versions: 1 2 3 4 5 6 7 8 9 10 11 12 13 14 15 16 17

922
FTUS41 KPBZ 060535
TAFHLG
TAF
KHLG 060535Z 0606/0706 19006KT P6SM BKN060
     FM061600 23010KT P6SM SCT050 BKN120
     FM070100 22004KT P6SM SCT200=

USA.gov is the U.S. government's official web portal to all federal, state and local government web resources and services.